CST,Max TemperatureF,Mean TemperatureF,Min TemperatureF,Max Dew PointF,MeanDew PointF,Min DewpointF,Max Humidity, Mean Humidity, Min Humidity, Max Sea Level PressureIn, Mean Sea Level PressureIn, Min Sea Level PressureIn, Max VisibilityMiles, Mean VisibilityMiles, Min VisibilityMiles, Max Wind SpeedMPH, Mean Wind SpeedMPH, Max Gust SpeedMPH,PrecipitationIn, CloudCover, Events, WindDirDegrees
2012-11-1,73,56,38,43,39,34,89,58,28,30.04,29.99,29.92,10,10,9,14,5,17,0.00,0,,193
2012-11-2,79,61,43,53,47,41,86,61,37,29.96,29.89,29.81,10,10,10,18,8,23,0.00,0,,155
2012-11-3,69,53,37,50,38,34,82,62,44,30.20,30.08,29.85,10,10,9,18,8,25,0.00,0,,330
2012-11-4,64,49,34,41,37,34,97,68,38,30.25,30.16,30.07,10,9,4,8,3,13,0.00,0,,116
2012-11-5,54,49,43,48,41,39,93,80,61,30.12,30.06,29.97,10,8,5,18,11,23,T,7,Rain,320
2012-11-6,58,49,40,41,37,27,93,71,49,30.12,30.08,30.02,10,8,4,20,7,28,0.00,4,,304
2012-11-7,57,46,35,34,31,26,73,58,36,30.19,30.14,30.09,10,10,10,16,6,22,0.00,0,,328
2012-11-8,71,56,40,44,38,32,70,53,32,30.14,30.02,29.92,10,10,10,23,11,29,0.00,0,,158
2012-11-9,75,65,55,57,53,43,75,64,53,29.94,29.88,29.82,10,10,10,28,19,36,0.00,0,,182
2012-11-10,75,69,63,55,52,49,67,57,41,29.93,29.84,29.76,10,10,10,31,22,41,0.00,0,,180
2012-11-11,68,49,30,57,44,25,100,89,63,30.28,29.94,29.70,10,7,1,33,13,43,1.13,7,Rain-Thunderstorm,300
2012-11-12,47,35,22,26,24,21,92,68,41,30.49,30.43,30.31,10,10,10,18,6,23,0.00,0,,230
2012-11-13,55,42,29,30,26,24,82,56,34,30.51,30.45,30.37,10,10,10,13,5,15,0.00,0,,177
2012-11-14,57,44,31,29,26,22,70,51,27,30.44,30.37,30.31,10,10,10,9,4,13,0.00,0,,154
2012-11-15,59,47,34,34,30,26,86,56,33,30.39,30.33,30.30,10,10,9,10,4,,0.00,0,,176
2012-11-16,62,46,30,37,33,29,96,63,32,30.46,30.40,30.38,10,8,5,7,1,16,0.00,0,,132
2012-11-17,62,48,34,31,29,26,76,48,28,30.44,30.37,30.30,10,10,10,16,7,18,0.00,0,,153
2012-11-18,66,53,40,35,30,27,57,42,27,30.32,30.25,30.19,10,10,10,20,9,24,0.00,0,,162
2012-11-19,66,57,48,49,45,35,89,70,47,30.22,30.16,30.10,10,10,6,17,10,24,0.18,3,Rain,194
2012-11-20,65,53,40,48,43,39,97,75,42,30.25,30.19,30.14,10,9,5,10,4,13,0.00,0,,270
2012-11-21,72,54,36,46,38,34,100,63,25,30.27,30.19,30.06,10,8,1,15,7,18,0.00,0,,169
2012-11-22,71,62,52,49,43,38,64,53,45,30.24,30.02,29.92,10,10,10,30,15,38,T,2,,191
2012-11-23,52,41,29,37,25,19,86,62,45,30.49,30.42,30.26,10,10,6,24,8,30,0.00,0,,317
2012-11-24,50,36,21,22,19,14,85,53,30,30.45,30.25,30.01,10,10,10,21,6,26,0.00,0,,185
2012-11-25,62,51,40,35,28,21,70,47,32,29.99,29.94,29.87,10,10,10,21,8,26,0.00,0,,175
2012-11-26,45,37,29,32,29,24,85,69,47,30.43,30.16,29.96,10,10,10,22,11,32,0.00,4,,32
2012-11-27,46,33,20,24,21,18,92,69,38,30.50,30.41,30.33,10,10,8,10,3,21,0.00,0,,230
2012-11-28,55,40,24,31,27,21,84,60,37,30.45,30.35,30.23,10,10,9,12,5,17,0.00,0,,159
2012-11-29,67,53,39,38,33,30,70,49,28,30.22,30.12,30.02,10,10,10,28,14,35,0.00,0,,183
2012-11-30,66,58,49,53,44,29,83,64,44,30.12,30.07,30.02,10,10,9,17,10,22,0.00,1,,181